Time;durP1;ratioP1;P1;durP2;ratioP2;P2;SDS_P1;SDS_P2;PMS_P1;PMS_P2;Temp;Humidity;BMP_temperature;BMP_pressure;BME280_temperature;BME280_humidity;BME280_pressure;Samples;Min_cycle;Max_cycle;Signal;HPM_P1;HPM_P2
2021/01/31 00:02:57;;;;;;;43.97;24.50;;;2.40;99.90;;;;;;6252743;28;20499;-79
2021/01/31 00:06:01;;;;;;;67.05;32.55;;;2.40;99.90;;;;;;6254901;28;20056;-77
2021/01/31 00:09:04;;;;;;;60.27;30.57;;;2.40;99.90;;;;;;6254573;28;20487;-78
2021/01/31 00:12:05;;;;;;;65.80;31.43;;;2.40;99.90;;;;;;6253406;28;20126;-78
2021/01/31 00:15:09;;;;;;;50.90;26.67;;;2.50;99.90;;;;;;6254683;28;20124;-78
2021/01/31 00:18:11;;;;;;;72.97;33.97;;;2.40;99.90;;;;;;6255569;28;20195;-77
2021/01/31 00:21:12;;;;;;;47.53;26.10;;;2.40;99.90;;;;;;6256996;28;20571;-78
2021/01/31 00:24:14;;;;;;;74.68;33.83;;;2.40;99.90;;;;;;6251235;28;20053;-78
2021/01/31 00:27:16;;;;;;;71.03;34.30;;;2.40;99.90;;;;;;6253374;28;20384;-77
2021/01/31 00:30:21;;;;;;;71.70;32.53;;;2.40;99.90;;;;;;6254494;28;20511;-78
2021/01/31 00:33:24;;;;;;;62.30;32.53;;;2.40;99.90;;;;;;6253192;28;20159;-78
2021/01/31 00:36:25;;;;;;;59.00;28.93;;;2.40;99.90;;;;;;6253885;28;20049;-78
2021/01/31 00:39:27;;;;;;;71.43;33.30;;;2.40;99.90;;;;;;6252349;28;20523;-77
2021/01/31 00:42:29;;;;;;;65.87;29.83;;;2.40;99.90;;;;;;6252270;28;20072;-78
2021/01/31 00:45:30;;;;;;;66.53;34.90;;;2.40;99.90;;;;;;6253006;28;20080;-77
2021/01/31 00:48:31;;;;;;;46.07;25.23;;;2.40;99.90;;;;;;6253007;28;20076;-77
2021/01/31 00:51:33;;;;;;;60.03;29.60;;;2.40;99.90;;;;;;6251053;28;20526;-77
2021/01/31 00:54:35;;;;;;;54.87;29.97;;;2.40;99.90;;;;;;6251683;28;20123;-77
2021/01/31 00:57:36;;;;;;;67.17;35.43;;;2.40;99.90;;;;;;6253488;28;20423;-78
2021/01/31 01:00:39;;;;;;;68.57;32.60;;;2.40;99.90;;;;;;6252838;28;20125;-78
2021/01/31 01:03:41;;;;;;;81.05;35.47;;;2.40;99.90;;;;;;6252521;28;20115;-78
2021/01/31 01:06:42;;;;;;;69.07;28.73;;;2.50;99.90;;;;;;6252492;28;20044;-78
2021/01/31 01:09:45;;;;;;;61.63;32.13;;;2.40;99.90;;;;;;6252380;28;20563;-78
2021/01/31 01:12:46;;;;;;;77.87;34.10;;;2.50;99.90;;;;;;6251826;28;20100;-77
2021/01/31 01:15:47;;;;;;;76.30;33.50;;;2.50;99.90;;;;;;6251482;28;20072;-77
2021/01/31 01:18:49;;;;;;;61.90;28.05;;;2.50;99.90;;;;;;6252659;28;20072;-78
2021/01/31 01:21:50;;;;;;;71.38;31.40;;;2.50;99.90;;;;;;6251895;28;20049;-77
2021/01/31 01:24:52;;;;;;;71.78;36.95;;;2.50;99.90;;;;;;6253104;28;20041;-77
2021/01/31 01:27:54;;;;;;;56.40;26.15;;;2.50;99.90;;;;;;6258600;28;20049;-78
2021/01/31 01:30:56;;;;;;;73.03;34.53;;;2.60;99.90;;;;;;6253578;28;20045;-78
2021/01/31 01:33:57;;;;;;;66.23;32.27;;;2.60;99.90;;;;;;6252527;28;20097;-77
2021/01/31 01:36:58;;;;;;;65.47;32.63;;;2.60;99.90;;;;;;6250409;28;20049;-78
2021/01/31 01:40:01;;;;;;;66.13;30.30;;;2.60;99.90;;;;;;6250051;28;20422;-78
2021/01/31 01:43:03;;;;;;;63.85;32.03;;;2.60;99.90;;;;;;6249873;28;20053;-77
2021/01/31 01:46:24;;;;;;;61.37;30.73;;;2.50;99.90;;;;;;6251638;28;20153;-78
2021/01/31 01:49:29;;;;;;;51.30;22.77;;;2.50;99.90;;;;;;6251948;28;20569;-78
2021/01/31 01:52:35;;;;;;;62.97;29.92;;;2.50;99.90;;;;;;6250430;28;20136;-77
2021/01/31 01:55:43;;;;;;;58.83;31.57;;;2.50;99.90;;;;;;6250377;28;20071;-77
2021/01/31 01:58:46;;;;;;;65.73;31.33;;;2.50;99.90;;;;;;6249898;28;20052;-78
2021/01/31 02:01:56;;;;;;;58.87;30.33;;;2.50;99.90;;;;;;6250625;28;20140;-77
2021/01/31 02:05:02;;;;;;;72.70;32.93;;;2.50;99.90;;;;;;6250422;28;20463;-78
2021/01/31 02:08:04;;;;;;;56.23;27.37;;;2.50;99.90;;;;;;6249314;28;20132;-77
2021/01/31 02:11:06;;;;;;;46.33;25.00;;;2.50;99.90;;;;;;6248987;28;20060;-78
2021/01/31 02:14:11;;;;;;;52.50;29.53;;;2.50;99.90;;;;;;6248838;28;20049;-78
2021/01/31 02:17:19;;;;;;;47.40;27.33;;;2.40;99.90;;;;;;6248729;28;20049;-77
2021/01/31 02:21:08;;;;;;;41.43;22.83;;;2.40;99.90;;;;;;6248738;28;20043;-77
2021/01/31 02:24:38;;;;;;;48.67;25.77;;;2.40;99.90;;;;;;6248622;28;20168;-77
2021/01/31 02:28:03;;;;;;;38.93;21.70;;;2.30;99.90;;;;;;6248242;28;20367;-77
2021/01/31 02:31:32;;;;;;;37.70;22.37;;;2.30;99.90;;;;;;6248074;28;20507;-77
2021/01/31 02:34:47;;;;;;;;;;;2.30;99.90;;;;;;6249536;28;20051;-77
2021/01/31 02:37:56;;;;;;;37.03;20.77;;;2.30;99.90;;;;;;6248692;28;19936;-78
2021/01/31 02:41:03;;;;;;;42.17;22.73;;;2.30;99.90;;;;;;6248302;28;20099;-78
2021/01/31 02:44:08;;;;;;;40.37;24.63;;;2.30;99.90;;;;;;6248025;28;20073;-78
2021/01/31 02:47:14;;;;;;;49.43;26.57;;;2.30;99.90;;;;;;6249249;28;20120;-78
2021/01/31 02:50:22;;;;;;;45.83;25.63;;;2.30;99.90;;;;;;6248748;28;20071;-77
2021/01/31 02:53:27;;;;;;;34.17;18.02;;;2.30;99.90;;;;;;6248248;28;20097;-77
2021/01/31 02:56:35;;;;;;;38.47;22.53;;;2.30;99.90;;;;;;6247713;28;20725;-77
2021/01/31 02:59:42;;;;;;;40.72;25.90;;;2.20;99.90;;;;;;6247782;28;20091;-78
2021/01/31 03:02:52;;;;;;;39.55;22.63;;;2.20;99.90;;;;;;6247255;28;20045;-77
2021/01/31 03:05:58;;;;;;;40.63;24.27;;;2.30;99.90;;;;;;6248055;28;20057;-77
2021/01/31 03:09:06;;;;;;;25.77;17.33;;;2.30;99.90;;;;;;6247745;28;20048;-77
2021/01/31 03:12:11;;;;;;;28.90;19.60;;;2.20;99.90;;;;;;6247232;28;20058;-78
2021/01/31 03:15:16;;;;;;;36.53;23.73;;;2.20;99.90;;;;;;6247669;28;20053;-77
2021/01/31 03:18:23;;;;;;;39.57;24.40;;;2.20;99.90;;;;;;6247359;28;20045;-77
2021/01/31 03:21:27;;;;;;;37.73;23.57;;;2.10;99.90;;;;;;6247815;28;20049;-78
2021/01/31 03:24:32;;;;;;;39.70;23.07;;;2.10;99.90;;;;;;6247314;28;20481;-78
2021/01/31 03:27:37;;;;;;;37.67;22.57;;;2.10;99.90;;;;;;6247239;28;20128;-77
2021/01/31 03:30:38;;;;;;;26.03;16.77;;;2.10;99.90;;;;;;6247084;28;20040;-78
2021/01/31 03:33:47;;;;;;;36.37;22.00;;;2.10;99.90;;;;;;6247305;28;20049;-77
2021/01/31 03:36:53;;;;;;;32.77;20.10;;;2.10;99.90;;;;;;6247221;28;20050;-77
2021/01/31 03:39:56;;;;;;;34.17;19.80;;;2.10;99.90;;;;;;6246823;28;20037;-78
2021/01/31 03:42:58;;;;;;;38.50;23.73;;;2.20;99.90;;;;;;6246894;28;20068;-78
2021/01/31 03:46:06;;;;;;;38.30;22.90;;;2.10;99.90;;;;;;6247052;28;20103;-77
2021/01/31 03:49:11;;;;;;;35.63;22.40;;;2.10;99.90;;;;;;6247295;28;20046;-77
2021/01/31 03:52:13;;;;;;;37.03;22.73;;;2.10;99.90;;;;;;6246738;28;20430;-78
2021/01/31 03:55:15;;;;;;;40.87;22.27;;;2.10;99.90;;;;;;6246882;28;20068;-78
2021/01/31 03:58:18;;;;;;;29.70;18.13;;;2.10;99.90;;;;;;6247611;28;20045;-78
2021/01/31 04:01:22;;;;;;;40.30;22.83;;;2.10;99.90;;;;;;6252044;28;20136;-77
2021/01/31 04:04:32;;;;;;;32.10;20.30;;;2.10;99.90;;;;;;6251808;28;20045;-76
2021/01/31 04:07:37;;;;;;;38.27;21.80;;;2.20;99.90;;;;;;6251508;28;20703;-77
2021/01/31 04:10:42;;;;;;;23.23;16.37;;;2.10;99.90;;;;;;6252328;28;20056;-77
2021/01/31 04:13:43;;;;;;;34.53;21.23;;;2.10;99.90;;;;;;6251805;28;20136;-78
2021/01/31 04:16:47;;;;;;;34.13;22.17;;;2.10;99.90;;;;;;6251763;28;20045;-77
2021/01/31 04:19:48;;;;;;;34.77;22.43;;;2.10;99.90;;;;;;6251285;28;20045;-77
2021/01/31 04:22:50;;;;;;;34.27;20.87;;;2.00;99.90;;;;;;6251098;28;20454;-77
2021/01/31 04:25:52;;;;;;;33.07;22.13;;;2.10;99.90;;;;;;6251665;28;20085;-77
2021/01/31 04:28:53;;;;;;;33.87;21.97;;;2.10;99.90;;;;;;6251619;28;20080;-77
2021/01/31 04:31:54;;;;;;;27.90;19.83;;;2.20;99.90;;;;;;6251036;28;20133;-78
2021/01/31 04:34:56;;;;;;;33.73;21.83;;;2.10;99.90;;;;;;6251290;28;20120;-78
2021/01/31 04:37:58;;;;;;;35.53;22.50;;;2.10;99.90;;;;;;6251038;28;20500;-77
2021/01/31 04:41:00;;;;;;;37.77;24.93;;;2.10;99.90;;;;;;6251208;28;20490;-78
2021/01/31 04:44:01;;;;;;;36.93;19.83;;;2.20;99.90;;;;;;6251391;28;20152;-77
2021/01/31 04:47:07;;;;;;;27.53;16.07;;;2.20;99.90;;;;;;6250993;28;20488;-78
2021/01/31 04:50:16;;;;;;;29.63;20.17;;;2.10;99.90;;;;;;6251095;28;20132;-78
2021/01/31 04:53:50;;;;;;;34.30;21.47;;;2.10;99.90;;;;;;6251004;28;20057;-77
2021/01/31 04:57:01;;;;;;;34.13;21.47;;;2.10;99.90;;;;;;6250417;28;20077;-78
2021/01/31 05:00:06;;;;;;;33.67;20.50;;;2.00;99.90;;;;;;6250675;28;20046;-78
2021/01/31 05:03:07;;;;;;;37.83;22.73;;;2.00;99.90;;;;;;6250221;28;20045;-77
2021/01/31 05:06:13;;;;;;;48.27;25.47;;;2.10;99.90;;;;;;6254714;28;20530;-77
2021/01/31 05:09:18;;;;;;;42.00;25.43;;;2.10;99.90;;;;;;6261931;28;20041;-77
2021/01/31 05:12:25;;;;;;;33.57;19.47;;;2.20;99.90;;;;;;6252696;28;20392;-77
2021/01/31 05:15:28;;;;;;;37.33;21.90;;;2.10;99.90;;;;;;6250345;28;20503;-77
2021/01/31 05:18:31;;;;;;;41.10;24.30;;;2.10;99.90;;;;;;6250383;28;20048;-77
2021/01/31 05:21:34;;;;;;;45.13;25.43;;;2.10;99.90;;;;;;6250455;28;20060;-76
2021/01/31 05:24:36;;;;;;;41.07;24.43;;;2.20;99.90;;;;;;6249872;28;20045;-77
2021/01/31 05:27:38;;;;;;;26.97;18.63;;;2.20;99.90;;;;;;6250227;28;20124;-77
2021/01/31 05:30:42;;;;;;;32.47;17.03;;;2.20;99.90;;;;;;6249465;28;20049;-77
2021/01/31 05:33:52;;;;;;;41.27;22.73;;;2.20;99.90;;;;;;6250156;28;20099;-78
2021/01/31 05:37:01;;;;;;;39.23;23.63;;;2.20;99.90;;;;;;6249671;28;20045;-77
2021/01/31 05:40:08;;;;;;;39.17;23.60;;;2.20;99.90;;;;;;6249813;28;20042;-77
2021/01/31 05:43:15;;;;;;;27.23;16.05;;;2.20;99.90;;;;;;6247965;28;20522;-78
2021/01/31 05:46:17;;;;;;;37.80;21.70;;;2.20;99.90;;;;;;6249864;28;20045;-77
2021/01/31 05:49:34;;;;;;;34.73;24.20;;;2.20;99.90;;;;;;6250002;28;20097;-77
2021/01/31 05:52:36;;;;;;;34.40;20.77;;;2.30;99.90;;;;;;6249329;28;20103;-77
2021/01/31 05:55:38;;;;;;;29.97;19.67;;;2.30;99.90;;;;;;6249657;28;20049;-77
2021/01/31 05:58:39;;;;;;;35.13;20.60;;;2.30;99.90;;;;;;6249190;28;20045;-77
2021/01/31 06:01:54;;;;;;;28.57;18.03;;;2.30;99.90;;;;;;6249419;28;20053;-77
2021/01/31 06:05:16;;;;;;;30.33;21.20;;;2.30;99.90;;;;;;6249863;28;20128;-78
2021/01/31 06:08:27;;;;;;;33.33;21.10;;;2.30;99.90;;;;;;6249033;28;20050;-78
2021/01/31 06:11:32;;;;;;;27.07;16.93;;;2.30;99.90;;;;;;6249060;28;20049;-78
2021/01/31 06:14:36;;;;;;;28.97;19.40;;;2.30;99.90;;;;;;6248724;28;20127;-78
2021/01/31 06:17:38;;;;;;;26.60;18.17;;;2.30;99.90;;;;;;6249750;28;20046;-78
2021/01/31 06:20:43;;;;;;;27.03;19.17;;;2.30;99.90;;;;;;6247831;28;20103;-77
2021/01/31 06:23:46;;;;;;;28.93;17.87;;;2.30;99.90;;;;;;6248404;28;20129;-77
2021/01/31 06:26:48;;;;;;;31.90;20.23;;;2.30;99.90;;;;;;6248520;28;20071;-77
2021/01/31 06:30:04;;;;;;;30.70;20.03;;;2.20;99.90;;;;;;6248494;28;20435;-77
2021/01/31 06:33:05;;;;;;;30.50;20.00;;;2.30;99.90;;;;;;6248944;28;20236;-77
2021/01/31 06:36:23;;;;;;;26.87;16.20;;;2.20;99.90;;;;;;6248324;28;20049;-77
2021/01/31 06:39:43;;;;;;;28.40;16.77;;;2.20;99.90;;;;;;6248202;28;20080;-77
2021/01/31 06:42:55;;;;;;;27.07;17.67;;;2.20;99.90;;;;;;6248372;28;20120;-77
2021/01/31 06:46:02;;;;;;;27.47;17.67;;;2.20;99.90;;;;;;6248104;28;20053;-77
2021/01/31 06:49:10;;;;;;;25.87;19.27;;;2.20;99.90;;;;;;6248667;28;20124;-76
2021/01/31 06:52:23;;;;;;;20.07;14.03;;;2.10;99.90;;;;;;6247666;28;20503;-77
2021/01/31 06:55:49;;;;;;;30.80;20.47;;;2.20;99.90;;;;;;6248073;28;20050;-77
2021/01/31 06:59:09;;;;;;;32.07;20.50;;;2.20;99.90;;;;;;6248211;28;20048;-78
2021/01/31 07:02:50;;;;;;;31.17;20.10;;;2.20;99.90;;;;;;6247358;28;20140;-77
2021/01/31 07:06:05;;;;;;;27.13;17.17;;;2.20;99.90;;;;;;6230504;28;20396;-77
2021/01/31 07:09:25;;;;;;;20.87;14.70;;;2.20;99.90;;;;;;6223096;28;20411;-77
2021/01/31 07:12:30;;;;;;;25.03;17.53;;;2.20;99.90;;;;;;6222696;28;20104;-77
2021/01/31 07:15:41;;;;;;;28.53;17.93;;;2.20;99.90;;;;;;6247763;28;20131;-76
2021/01/31 07:18:49;;;;;;;24.77;16.53;;;2.20;99.90;;;;;;6247416;28;20052;-77
2021/01/31 07:21:59;;;;;;;22.40;16.47;;;2.20;99.90;;;;;;6247557;28;20049;-78
2021/01/31 07:25:05;;;;;;;22.40;16.67;;;2.20;99.90;;;;;;6247542;28;20057;-76
2021/01/31 07:28:11;;;;;;;20.47;14.63;;;2.30;99.90;;;;;;6247173;28;20064;-77
2021/01/31 07:31:20;;;;;;;22.97;13.90;;;2.30;99.90;;;;;;6246967;28;20156;-77
2021/01/31 07:34:26;;;;;;;23.87;15.80;;;2.30;99.90;;;;;;6247018;28;20054;-77
2021/01/31 07:37:29;;;;;;;21.00;14.97;;;2.30;99.90;;;;;;6247435;28;20058;-77
2021/01/31 07:40:31;;;;;;;26.37;17.43;;;2.30;99.90;;;;;;6226414;28;20046;-77
2021/01/31 07:43:37;;;;;;;15.43;12.43;;;2.40;99.90;;;;;;6222512;28;20053;-78
2021/01/31 07:46:39;;;;;;;24.93;13.97;;;2.40;99.90;;;;;;6223540;28;20049;-78
2021/01/31 07:50:13;;;;;;;21.83;15.03;;;2.30;99.90;;;;;;6270146;28;20045;-77
2021/01/31 07:53:27;;;;;;;24.70;17.37;;;2.40;99.90;;;;;;6255006;28;20650;-77
2021/01/31 07:56:34;;;;;;;22.23;14.53;;;2.40;99.90;;;;;;6262604;28;20052;-77
2021/01/31 07:59:39;;;;;;;19.58;14.45;;;2.50;99.90;;;;;;6267363;28;20128;-76
2021/01/31 08:02:45;;;;;;;22.30;14.67;;;2.60;99.90;;;;;;6269309;28;20041;-78
2021/01/31 08:06:05;;;;;;;24.20;14.73;;;2.60;99.90;;;;;;6264572;28;20052;-77
2021/01/31 08:09:06;;;;;;;23.37;15.37;;;2.60;99.90;;;;;;6261259;28;20045;-77
2021/01/31 08:12:09;;;;;;;20.87;16.13;;;2.60;99.90;;;;;;6266129;28;20037;-77
2021/01/31 08:15:14;;;;;;;19.27;14.30;;;2.60;99.90;;;;;;6262185;28;20303;-78
2021/01/31 08:18:19;;;;;;;21.57;14.10;;;2.70;99.90;;;;;;6263755;28;20049;-77
2021/01/31 08:21:49;;;;;;;17.53;13.07;;;2.70;99.90;;;;;;6267092;28;20056;-77
2021/01/31 08:25:20;;;;;;;22.57;14.77;;;2.70;99.90;;;;;;6264948;28;20045;-78
2021/01/31 08:28:25;;;;;;;22.60;14.60;;;2.70;99.90;;;;;;6268304;28;20548;-77
2021/01/31 08:31:26;;;;;;;22.42;13.95;;;2.70;99.90;;;;;;6265080;28;20057;-77
2021/01/31 08:34:29;;;;;;;23.47;15.40;;;2.70;99.90;;;;;;6261901;28;20052;-76
2021/01/31 08:37:30;;;;;;;23.67;14.50;;;2.80;99.90;;;;;;6263176;28;20044;-77
2021/01/31 08:40:31;;;;;;;24.30;15.70;;;2.80;99.90;;;;;;6236487;28;20041;-76
2021/01/31 08:43:36;;;;;;;22.97;15.10;;;2.90;99.90;;;;;;6242459;28;20073;-76
2021/01/31 08:46:55;;;;;;;17.33;13.37;;;2.90;99.90;;;;;;6238493;28;20074;-76
2021/01/31 08:50:02;;;;;;;;;;;2.90;99.90;;;;;;6255655;28;20096;-76
2021/01/31 08:53:05;;;;;;;19.43;14.77;;;3.00;99.90;;;;;;6269613;28;19913;-76
2021/01/31 08:56:47;;;;;;;20.52;13.50;;;3.00;99.90;;;;;;6282399;28;20101;-77
2021/01/31 08:59:50;;;;;;;20.05;14.00;;;3.10;99.90;;;;;;6281891;28;20049;-77
2021/01/31 09:02:51;;;;;;;16.42;12.27;;;3.10;99.90;;;;;;6281843;28;20037;-78
2021/01/31 09:05:54;;;;;;;14.27;12.23;;;3.20;99.90;;;;;;6261094;28;20026;-78
2021/01/31 09:08:56;;;;;;;19.93;13.90;;;3.20;99.90;;;;;;6262789;28;20061;-78
2021/01/31 09:12:00;;;;;;;17.87;13.17;;;3.20;99.90;;;;;;6287256;28;20045;-79
2021/01/31 09:15:12;;;;;;;20.15;12.43;;;3.20;99.90;;;;;;6301294;28;20056;-78
2021/01/31 09:18:19;;;;;;;18.42;11.82;;;3.30;99.90;;;;;;6299074;28;20051;-78
2021/01/31 09:21:26;;;;;;;17.47;13.30;;;3.30;99.90;;;;;;6304562;28;20041;-78
2021/01/31 09:24:33;;;;;;;19.52;12.25;;;3.30;99.90;;;;;;6292245;28;20068;-76
2021/01/31 09:27:47;;;;;;;17.92;14.10;;;3.30;99.90;;;;;;6276663;28;20037;-76
2021/01/31 09:30:54;;;;;;;25.42;16.02;;;3.40;99.90;;;;;;6271471;28;20045;-76
2021/01/31 09:33:58;;;;;;;16.17;13.50;;;3.40;99.90;;;;;;6275355;28;20128;-77
2021/01/31 09:37:06;;;;;;;23.13;13.95;;;3.50;99.90;;;;;;6267740;28;20124;-77
2021/01/31 09:40:13;;;;;;;19.65;14.18;;;3.50;99.90;;;;;;6267333;28;20499;-77
2021/01/31 09:43:19;;;;;;;17.40;13.55;;;3.60;99.90;;;;;;6265535;28;20132;-77
2021/01/31 09:46:24;;;;;;;21.92;14.00;;;3.50;99.80;;;;;;6274833;28;20095;-77
2021/01/31 09:49:27;;;;;;;16.17;11.68;;;3.50;99.90;;;;;;6275101;28;20053;-77
2021/01/31 09:52:30;;;;;;;30.42;18.50;;;3.60;99.90;;;;;;6269893;28;20056;-77
2021/01/31 09:55:40;;;;;;;71.85;43.08;;;3.70;99.90;;;;;;6284803;28;20076;-77
2021/01/31 09:58:45;;;;;;;19.48;12.85;;;3.70;99.90;;;;;;6278116;28;20037;-77
2021/01/31 10:01:46;;;;;;;19.80;13.50;;;3.80;99.60;;;;;;6265612;28;20140;-77
2021/01/31 10:04:56;;;;;;;18.75;14.85;;;3.80;99.10;;;;;;6255559;28;20056;-77
2021/01/31 10:08:04;;;;;;;23.88;15.68;;;3.90;99.10;;;;;;6259679;28;20041;-77
2021/01/31 10:11:25;;;;;;;22.77;13.10;;;3.80;99.30;;;;;;6268633;28;20048;-77
2021/01/31 10:14:42;;;;;;;20.30;15.30;;;3.80;99.90;;;;;;6266815;28;20132;-77
2021/01/31 10:17:45;;;;;;;25.17;16.33;;;3.80;99.90;;;;;;6262806;28;20045;-80
2021/01/31 10:20:46;;;;;;;17.08;11.90;;;3.80;99.90;;;;;;6267694;28;20055;-77
2021/01/31 10:23:50;;;;;;;23.33;16.85;;;3.80;99.90;;;;;;6267746;28;20415;-78
2021/01/31 10:27:09;;;;;;;20.92;14.32;;;3.80;99.90;;;;;;6266162;28;20095;-78
2021/01/31 10:30:23;;;;;;;19.48;14.02;;;3.80;99.90;;;;;;6254390;28;20060;-78
2021/01/31 10:33:39;;;;;;;21.67;13.95;;;3.80;99.90;;;;;;6258285;28;20128;-77
2021/01/31 10:36:41;;;;;;;16.88;12.07;;;3.90;99.90;;;;;;6263223;28;20087;-78
2021/01/31 10:39:46;;;;;;;21.33;14.07;;;4.00;99.90;;;;;;6254219;28;20036;-78
2021/01/31 10:42:47;;;;;;;23.50;15.88;;;3.90;99.90;;;;;;6261482;28;20041;-77
2021/01/31 10:45:49;;;;;;;24.88;17.30;;;4.00;99.90;;;;;;6260436;28;20112;-78
2021/01/31 10:48:50;;;;;;;19.95;14.55;;;4.10;99.90;;;;;;6265892;28;20070;-78
2021/01/31 10:51:52;;;;;;;22.15;13.80;;;4.20;99.90;;;;;;6259000;28;20498;-78
2021/01/31 10:54:55;;;;;;;21.55;13.82;;;4.10;99.90;;;;;;6265250;28;20049;-78
2021/01/31 10:57:56;;;;;;;21.98;17.02;;;4.10;99.90;;;;;;6261638;28;20332;-78
2021/01/31 11:00:57;;;;;;;19.70;13.18;;;4.10;99.90;;;;;;6252817;28;20037;-77
2021/01/31 11:03:59;;;;;;;17.92;14.15;;;4.10;99.90;;;;;;6258596;28;20049;-78
2021/01/31 11:07:00;;;;;;;19.13;14.02;;;4.20;99.90;;;;;;6256997;28;20057;-77
2021/01/31 11:10:03;;;;;;;19.90;15.32;;;4.20;99.90;;;;;;6253607;28;20450;-77
2021/01/31 11:13:06;;;;;;;21.30;11.98;;;4.20;99.90;;;;;;6258804;28;20049;-78
2021/01/31 11:16:08;;;;;;;20.40;12.93;;;4.20;99.90;;;;;;6257115;28;20059;-78
2021/01/31 11:19:09;;;;;;;19.67;14.48;;;4.30;99.90;;;;;;6265560;28;20131;-77
2021/01/31 11:22:10;;;;;;;15.13;10.85;;;4.30;99.90;;;;;;6259886;28;20286;-77
2021/01/31 11:25:13;;;;;;;22.50;14.93;;;4.30;99.90;;;;;;6266475;28;20422;-78
2021/01/31 11:28:14;;;;;;;17.80;11.88;;;4.30;99.80;;;;;;6265933;28;20095;-76
2021/01/31 11:31:16;;;;;;;18.33;12.65;;;4.30;99.90;;;;;;6262121;28;20056;-77
2021/01/31 11:34:17;;;;;;;24.02;14.75;;;4.30;99.80;;;;;;6259201;28;20045;-77
2021/01/31 11:37:19;;;;;;;18.95;12.38;;;4.30;99.80;;;;;;6261609;28;20091;-77
2021/01/31 11:40:22;;;;;;;19.67;14.05;;;4.30;99.90;;;;;;6262150;28;20080;-78
2021/01/31 11:43:23;;;;;;;20.42;14.25;;;4.30;99.90;;;;;;6265213;28;20053;-77
2021/01/31 11:46:24;;;;;;;19.38;12.90;;;4.30;99.90;;;;;;6267459;28;20086;-77
2021/01/31 11:49:26;;;;;;;33.13;19.80;;;4.30;99.90;;;;;;6264312;28;20037;-77
2021/01/31 11:52:27;;;;;;;16.70;12.90;;;4.40;99.90;;;;;;6269393;28;20045;-77
2021/01/31 11:55:29;;;;;;;20.95;14.68;;;4.50;99.90;;;;;;6267382;28;20046;-77
2021/01/31 11:58:31;;;;;;;21.27;14.65;;;4.50;99.90;;;;;;6262060;28;20109;-78
2021/01/31 12:01:32;;;;;;;18.05;13.65;;;4.60;99.90;;;;;;6265957;28;20475;-77
2021/01/31 12:04:34;;;;;;;19.23;13.90;;;4.60;99.90;;;;;;6263497;28;20414;-77
2021/01/31 12:07:35;;;;;;;26.65;19.95;;;4.60;99.90;;;;;;6266779;28;20059;-77
2021/01/31 12:10:37;;;;;;;25.77;17.55;;;4.60;99.90;;;;;;6261160;28;20978;-77
2021/01/31 12:13:39;;;;;;;22.90;15.23;;;4.60;99.90;;;;;;6266835;28;20494;-77
2021/01/31 12:16:40;;;;;;;24.52;19.13;;;4.60;99.90;;;;;;6267243;28;20060;-77
2021/01/31 12:19:41;;;;;;;26.50;16.10;;;4.60;99.90;;;;;;6270691;28;20447;-77
2021/01/31 12:22:47;;;;;;;23.30;16.10;;;4.60;99.90;;;;;;6271598;28;20136;-77
2021/01/31 12:25:49;;;;;;;18.67;13.85;;;4.70;99.90;;;;;;6272523;28;20041;-76
2021/01/31 12:28:51;;;;;;;22.00;15.80;;;4.80;99.90;;;;;;6275412;28;20055;-76
2021/01/31 12:31:54;;;;;;;18.15;14.55;;;4.90;99.90;;;;;;6274817;28;20088;-77
2021/01/31 12:34:55;;;;;;;19.52;13.73;;;4.90;99.90;;;;;;6270490;28;20044;-77
2021/01/31 12:37:57;;;;;;;19.30;13.20;;;5.00;99.90;;;;;;6273563;28;20112;-77
2021/01/31 12:40:59;;;;;;;18.88;13.90;;;5.10;99.90;;;;;;6269934;28;20438;-77
2021/01/31 12:44:00;;;;;;;24.88;16.42;;;5.20;99.90;;;;;;6268778;28;20037;-77
2021/01/31 12:47:02;;;;;;;21.65;15.85;;;5.20;99.90;;;;;;6273818;28;20041;-77
2021/01/31 12:50:05;;;;;;;23.08;14.50;;;5.30;99.90;;;;;;6271903;28;20411;-77
2021/01/31 12:53:06;;;;;;;20.73;14.38;;;5.30;99.90;;;;;;6273978;28;20529;-77
2021/01/31 12:56:08;;;;;;;21.98;18.05;;;5.30;99.90;;;;;;6274724;28;20120;-78
2021/01/31 12:59:10;;;;;;;25.08;17.83;;;5.20;99.90;;;;;;6271023;28;20038;-77
2021/01/31 13:02:11;;;;;;;20.55;15.07;;;5.00;99.90;;;;;;6269402;28;20091;-78
2021/01/31 13:05:14;;;;;;;21.88;18.15;;;5.00;99.90;;;;;;6271049;28;20066;-76
2021/01/31 13:08:16;;;;;;;24.05;16.73;;;5.10;99.90;;;;;;6266708;28;20094;-76
2021/01/31 13:11:18;;;;;;;21.60;15.25;;;5.10;99.90;;;;;;6265016;28;20045;-76
2021/01/31 13:14:19;;;;;;;20.80;17.60;;;5.10;99.90;;;;;;6269108;28;20036;-76
2021/01/31 13:17:20;;;;;;;24.58;16.80;;;5.10;99.90;;;;;;6265669;28;20072;-76
2021/01/31 13:20:23;;;;;;;22.55;15.50;;;5.10;99.90;;;;;;6272853;28;20566;-78
2021/01/31 13:23:24;;;;;;;19.88;15.02;;;5.30;99.90;;;;;;6270545;28;20045;-78
2021/01/31 13:26:26;;;;;;;23.25;16.00;;;5.30;99.90;;;;;;6276774;28;20136;-78
2021/01/31 13:29:27;;;;;;;22.92;15.38;;;5.30;99.90;;;;;;6271074;28;20087;-78
2021/01/31 13:32:29;;;;;;;27.42;17.40;;;5.30;99.90;;;;;;6275164;28;20723;-78
2021/01/31 13:35:31;;;;;;;20.88;15.95;;;5.30;99.90;;;;;;6276174;28;20048;-78
2021/01/31 13:38:32;;;;;;;22.38;16.50;;;5.20;99.90;;;;;;6272720;28;20103;-78
2021/01/31 13:41:34;;;;;;;28.17;17.27;;;5.20;99.90;;;;;;6268233;28;20144;-78
2021/01/31 13:44:36;;;;;;;27.30;18.52;;;5.20;99.90;;;;;;6273108;28;20048;-77
2021/01/31 13:47:37;;;;;;;23.92;17.15;;;5.20;99.90;;;;;;6268592;28;20132;-77
2021/01/31 13:50:39;;;;;;;28.20;18.52;;;5.10;99.90;;;;;;6268882;28;20056;-77
2021/01/31 13:53:42;;;;;;;25.00;17.70;;;5.10;99.90;;;;;;6266630;28;20061;-78
2021/01/31 13:56:44;;;;;;;22.38;15.40;;;5.10;99.90;;;;;;6272559;28;20052;-78
2021/01/31 13:59:46;;;;;;;29.23;18.10;;;5.10;99.90;;;;;;6267703;28;20103;-77
2021/01/31 14:02:48;;;;;;;25.88;18.20;;;5.10;99.90;;;;;;6272084;28;20208;-78
2021/01/31 14:05:49;;;;;;;28.08;19.13;;;5.20;99.90;;;;;;6269326;28;20076;-77
2021/01/31 14:08:51;;;;;;;27.38;19.35;;;5.20;99.90;;;;;;6266706;28;20075;-76
2021/01/31 14:11:53;;;;;;;25.33;16.63;;;5.10;99.90;;;;;;6269873;28;20053;-76
2021/01/31 14:14:57;;;;;;;26.95;18.95;;;5.10;99.90;;;;;;6266730;28;20041;-76
2021/01/31 14:17:58;;;;;;;35.88;18.67;;;5.00;99.90;;;;;;6260482;28;20132;-76
2021/01/31 14:21:00;;;;;;;25.15;17.80;;;5.00;99.90;;;;;;6266640;28;20164;-76
2021/01/31 14:24:01;;;;;;;24.70;16.60;;;5.10;99.90;;;;;;6270978;28;20048;-76
2021/01/31 14:27:04;;;;;;;23.55;17.13;;;5.10;99.90;;;;;;6266281;28;20048;-76
2021/01/31 14:30:08;;;;;;;24.10;17.05;;;5.20;99.90;;;;;;6266957;28;20056;-77
2021/01/31 14:33:09;;;;;;;25.50;18.15;;;5.30;99.90;;;;;;6265779;28;20067;-77
2021/01/31 14:36:11;;;;;;;24.23;17.67;;;5.40;99.90;;;;;;6263625;28;20037;-77
2021/01/31 14:39:12;;;;;;;23.88;17.75;;;5.40;99.90;;;;;;6268071;28;20045;-77
2021/01/31 14:42:14;;;;;;;21.95;15.38;;;5.50;99.90;;;;;;6267107;28;20575;-76
2021/01/31 14:45:19;;;;;;;27.70;18.38;;;5.50;99.90;;;;;;6270801;28;20655;-77
2021/01/31 14:48:21;;;;;;;24.58;16.15;;;5.50;99.90;;;;;;6259757;28;20076;-76
2021/01/31 14:51:22;;;;;;;23.45;15.93;;;5.60;99.90;;;;;;6267658;28;20065;-76
2021/01/31 14:54:23;;;;;;;23.17;17.00;;;5.60;99.90;;;;;;6269487;28;20437;-75
2021/01/31 14:57:26;;;;;;;22.75;17.05;;;5.60;99.90;;;;;;6269065;28;20118;-76
2021/01/31 15:00:29;;;;;;;26.45;18.85;;;5.60;99.90;;;;;;6271751;28;20064;-76
2021/01/31 15:03:30;;;;;;;26.35;20.63;;;5.60;99.90;;;;;;6273922;28;20128;-76
2021/01/31 15:06:32;;;;;;;25.40;18.33;;;5.50;99.90;;;;;;6263369;28;20045;-76
2021/01/31 15:09:33;;;;;;;25.58;18.95;;;5.50;99.90;;;;;;6265773;28;20041;-77
2021/01/31 15:12:36;;;;;;;29.80;19.63;;;5.50;99.90;;;;;;6256456;28;20053;-77
2021/01/31 15:15:37;;;;;;;24.85;17.70;;;5.50;99.90;;;;;;6271024;28;20469;-77
2021/01/31 15:18:39;;;;;;;27.55;19.55;;;5.50;99.90;;;;;;6269885;28;20060;-76
2021/01/31 15:21:40;;;;;;;24.15;18.45;;;5.50;99.90;;;;;;6265252;28;20564;-76
2021/01/31 15:24:42;;;;;;;26.40;18.80;;;5.50;99.90;;;;;;6268117;28;20057;-77
2021/01/31 15:27:44;;;;;;;26.77;19.30;;;5.50;99.90;;;;;;6271864;28;20090;-78
2021/01/31 15:30:45;;;;;;;24.70;19.30;;;5.40;99.90;;;;;;6264063;28;20423;-77
2021/01/31 15:33:47;;;;;;;32.60;20.67;;;5.40;99.90;;;;;;6261449;28;20044;-78
2021/01/31 15:36:49;;;;;;;28.38;21.48;;;5.40;99.90;;;;;;6265883;28;20071;-77
2021/01/31 15:39:50;;;;;;;30.00;20.65;;;5.30;99.90;;;;;;6265354;28;20044;-76
2021/01/31 15:42:52;;;;;;;30.65;19.33;;;5.30;99.90;;;;;;6262495;28;20053;-77
2021/01/31 15:45:54;;;;;;;28.85;20.02;;;5.30;99.90;;;;;;6270096;28;20072;-77
2021/01/31 15:48:55;;;;;;;78.45;42.65;;;5.30;99.90;;;;;;6265813;28;20115;-77
2021/01/31 15:51:57;;;;;;;163.10;86.35;;;5.30;99.90;;;;;;6267756;28;20072;-77
2021/01/31 15:54:58;;;;;;;59.55;33.72;;;5.40;99.90;;;;;;6264089;28;20062;-77